Time;durP1;ratioP1;P1;durP2;ratioP2;P2;SDS_P1;SDS_P2;PMS_P1;PMS_P2;Temp;Humidity;BMP_temperature;BMP_pressure;BME280_temperature;BME280_humidity;BME280_pressure;Samples;Min_cycle;Max_cycle;Signal;HPM_P1;HPM_P2
2021/06/20 00:01:11;;;;;;;9.77;4.57;;;640.80;1382.40;;;;;;5114101;28;20540;-55
2021/06/20 00:03:37;;;;;;;7.60;4.03;;;640.70;1382.40;;;;;;5114843;28;20027;-55
2021/06/20 00:06:17;;;;;;;8.27;4.30;;;640.70;1382.40;;;;;;5114686;28;20082;-55
2021/06/20 00:08:43;;;;;;;11.95;4.90;;;640.70;1382.40;;;;;;5114841;28;20030;-55
2021/06/20 00:11:09;;;;;;;8.13;4.55;;;640.70;1382.40;;;;;;5114712;28;20541;-55
2021/06/20 00:13:35;;;;;;;9.27;5.30;;;640.60;1408.00;;;;;;5114969;28;20027;-55
2021/06/20 00:16:01;;;;;;;12.48;4.30;;;640.60;1408.00;;;;;;5114650;28;20035;-68
2021/06/20 00:18:27;;;;;;;11.60;4.78;;;640.60;1408.00;;;;;;5114611;28;20023;-55
2021/06/20 00:20:53;;;;;;;9.57;4.78;;;640.60;1408.00;;;;;;5114822;28;20026;-55
2021/06/20 00:23:19;;;;;;;11.82;5.03;;;640.50;1408.00;;;;;;5114515;28;20429;-55
2021/06/20 00:25:45;;;;;;;10.18;4.63;;;640.50;1408.00;;;;;;5114489;28;20059;-55
2021/06/20 00:28:11;;;;;;;8.02;3.92;;;640.40;1408.00;;;;;;5114399;28;20100;-59
2021/06/20 00:30:38;;;;;;;10.82;4.47;;;640.30;1408.00;;;;;;5114298;28;20055;-55
2021/06/20 00:33:04;;;;;;;11.38;4.72;;;640.30;1408.00;;;;;;5114610;28;20016;-55
2021/06/20 00:35:30;;;;;;;12.18;4.50;;;640.30;1433.60;;;;;;5114971;28;20028;-55
2021/06/20 00:37:56;;;;;;;10.07;4.43;;;640.30;1433.60;;;;;;5114297;28;20019;-56
2021/06/20 00:40:23;;;;;;;12.32;4.70;;;640.20;1433.60;;;;;;5114527;28;20487;-55
2021/06/20 00:42:49;;;;;;;13.57;4.65;;;640.20;1433.60;;;;;;5114178;28;20031;-55
2021/06/20 00:45:17;;;;;;;11.23;5.15;;;640.10;1459.20;;;;;;5114173;28;20084;-55
2021/06/20 00:47:44;;;;;;;7.28;4.18;;;640.00;1459.20;;;;;;5114126;28;20019;-55
2021/06/20 00:50:12;;;;;;;12.23;4.55;;;640.10;1459.20;;;;;;5114108;28;20027;-56
2021/06/20 00:52:39;;;;;;;8.80;4.18;;;615.30;1484.80;;;;;;5114454;28;20028;-55
2021/06/20 00:55:06;;;;;;;8.73;4.43;;;615.30;1459.20;;;;;;5114173;28;20495;-55
2021/06/20 00:57:34;;;;;;;9.88;4.85;;;615.30;1459.20;;;;;;5114192;28;20166;-55
2021/06/20 01:00:00;;;;;;;7.38;4.60;;;615.30;1459.20;;;;;;5113891;28;20055;-55
2021/06/20 01:02:27;;;;;;;7.10;4.57;;;615.30;1459.20;;;;;;5113956;28;20020;-55
2021/06/20 01:04:55;;;;;;;7.07;4.38;;;615.30;1459.20;;;;;;5114346;28;20376;-55
2021/06/20 01:07:22;;;;;;;6.80;4.55;;;615.30;1459.20;;;;;;5113775;28;20416;-56
2021/06/20 01:09:50;;;;;;;17.70;4.63;;;615.30;1484.80;;;;;;5113649;28;20038;-56
2021/06/20 01:12:18;;;;;;;11.88;4.88;;;615.20;1484.80;;;;;;5117805;28;20111;-55
2021/06/20 01:14:45;;;;;;;16.40;5.60;;;615.20;1484.80;;;;;;5120488;28;20552;-56
2021/06/20 01:17:12;;;;;;;10.38;5.22;;;615.00;1510.40;;;;;;5120603;28;20042;-56
2021/06/20 01:19:39;;;;;;;25.70;5.53;;;615.10;1484.80;;;;;;5120464;28;20555;-56
2021/06/20 01:22:17;;;;;;;12.27;5.30;;;615.10;1510.40;;;;;;5120496;28;20062;-57
2021/06/20 01:24:43;;;;;;;19.25;5.60;;;615.10;1510.40;;;;;;5120618;28;20030;-56
2021/06/20 01:27:11;;;;;;;20.08;5.32;;;615.00;1510.40;;;;;;5102327;28;20059;-55
2021/06/20 01:29:45;;;;;;;19.70;5.00;;;615.00;1510.40;;;;;;5120460;28;20035;-55
2021/06/20 01:32:12;;;;;;;13.88;4.80;;;615.00;1510.40;;;;;;5121161;28;20026;-55
2021/06/20 01:34:38;;;;;;;13.95;5.22;;;614.90;1510.40;;;;;;5136381;27;20450;-55
2021/06/20 01:37:08;;;;;;;16.27;5.53;;;614.90;1510.40;;;;;;5120762;28;20020;-56
2021/06/20 01:39:36;;;;;;;9.90;5.30;;;614.90;1510.40;;;;;;5120745;28;20410;-55
2021/06/20 01:42:02;;;;;;;14.20;5.35;;;614.90;1510.40;;;;;;5120423;28;20047;-55
2021/06/20 01:44:28;;;;;;;10.68;4.85;;;614.90;1510.40;;;;;;5120435;28;20058;-55
2021/06/20 01:46:54;;;;;;;8.98;5.03;;;614.80;1536.00;;;;;;5120943;28;20051;-56
2021/06/20 01:49:20;;;;;;;12.65;5.57;;;614.80;1536.00;;;;;;5120454;28;20020;-55
2021/06/20 01:51:45;;;;;;;11.32;4.88;;;614.80;1536.00;;;;;;5120637;28;20372;-56
2021/06/20 01:54:12;;;;;;;10.85;4.85;;;614.80;1536.00;;;;;;5120324;28;20491;-55
2021/06/20 01:56:38;;;;;;;9.35;4.70;;;614.80;1536.00;;;;;;5120519;28;20058;-55
2021/06/20 01:59:04;;;;;;;13.10;4.75;;;614.80;1536.00;;;;;;5120252;28;20479;-55
2021/06/20 02:01:30;;;;;;;11.63;4.57;;;614.80;1536.00;;;;;;5120484;28;20111;-55
2021/06/20 02:03:56;;;;;;;13.85;5.03;;;614.80;1536.00;;;;;;5120221;28;20055;-55
2021/06/20 02:06:22;;;;;;;9.30;4.85;;;614.80;1536.00;;;;;;5120012;28;20043;-55
2021/06/20 02:08:48;;;;;;;7.00;4.50;;;614.70;1536.00;;;;;;5120144;28;20573;-55
2021/06/20 02:11:14;;;;;;;7.03;5.20;;;614.70;1536.00;;;;;;5120120;28;20038;-55
2021/06/20 02:13:40;;;;;;;10.18;5.05;;;614.70;1536.00;;;;;;5120100;28;20361;-55
2021/06/20 02:16:06;;;;;;;10.07;5.53;;;614.70;1536.00;;;;;;5120387;28;20023;-55
2021/06/20 02:18:32;;;;;;;8.50;5.13;;;614.70;1536.00;;;;;;5120687;28;20371;-55
2021/06/20 02:20:58;;;;;;;6.40;5.35;;;614.70;1536.00;;;;;;5120348;28;20049;-55
2021/06/20 02:23:24;;;;;;;12.48;5.10;;;614.70;1536.00;;;;;;5117950;28;20459;-55
2021/06/20 02:25:50;;;;;;;10.68;5.35;;;614.40;1587.20;;;;;;5117198;28;20046;-55
2021/06/20 02:28:16;;;;;;;7.47;4.82;;;614.40;1561.60;;;;;;5116780;28;20099;-55
2021/06/20 02:30:43;;;;;;;8.25;5.65;;;614.40;1561.60;;;;;;5116902;28;20063;-56
2021/06/20 02:33:09;;;;;;;6.53;5.00;;;614.40;1561.60;;;;;;5116983;28;20031;-55
2021/06/20 02:35:35;;;;;;;6.75;4.90;;;614.40;1561.60;;;;;;5117247;28;20391;-55
2021/06/20 02:38:02;;;;;;;9.88;5.15;;;614.40;1561.60;;;;;;5116573;28;20023;-55
2021/06/20 02:40:27;;;;;;;6.80;4.80;;;589.70;1587.20;;;;;;5116606;28;20023;-55
2021/06/20 02:42:53;;;;;;;9.77;4.45;;;589.60;1587.20;;;;;;5116428;28;20031;-55
2021/06/20 02:45:21;;;;;;;7.15;4.68;;;589.60;1587.20;;;;;;5116663;28;20038;-55
2021/06/20 02:47:47;;;;;;;10.15;5.25;;;589.60;1587.20;;;;;;5116682;28;20050;-55
2021/06/20 02:50:15;;;;;;;10.25;5.25;;;589.60;1587.20;;;;;;5116326;28;20032;-55
2021/06/20 02:52:43;;;;;;;11.32;5.55;;;589.60;1587.20;;;;;;5116887;28;20022;-55
2021/06/20 02:55:09;;;;;;;8.07;5.25;;;589.60;1612.80;;;;;;5116222;28;20042;-55
2021/06/20 02:57:35;;;;;;;12.10;5.10;;;589.60;1587.20;;;;;;5116517;28;20019;-55
2021/06/20 03:00:03;;;;;;;8.98;5.40;;;589.60;1587.20;;;;;;5116163;28;20050;-55
2021/06/20 03:02:29;;;;;;;6.95;5.32;;;589.60;1587.20;;;;;;5116030;28;20055;-55
2021/06/20 03:04:56;;;;;;;10.40;4.90;;;589.60;1587.20;;;;;;5116014;28;20475;-56
2021/06/20 03:07:23;;;;;;;8.48;5.03;;;589.60;1587.20;;;;;;5115861;28;20501;-56
2021/06/20 03:09:49;;;;;;;9.10;5.07;;;589.60;1587.20;;;;;;5115957;28;20032;-55
2021/06/20 03:12:16;;;;;;;8.23;5.25;;;589.50;1587.20;;;;;;5115988;28;20353;-59
2021/06/20 03:14:43;;;;;;;10.20;4.90;;;589.50;1587.20;;;;;;5115838;28;20019;-55
2021/06/20 03:17:10;;;;;;;8.45;4.82;;;589.50;1587.20;;;;;;5115866;28;20024;-55
2021/06/20 03:19:37;;;;;;;8.65;4.85;;;589.50;1587.20;;;;;;5115768;28;20027;-55
2021/06/20 03:22:04;;;;;;;7.65;4.93;;;589.50;1587.20;;;;;;5115769;28;20015;-55
2021/06/20 03:24:34;;;;;;;6.60;4.97;;;589.50;1587.20;;;;;;5115993;28;20024;-55
2021/06/20 03:27:00;;;;;;;8.05;5.10;;;589.50;1587.20;;;;;;5115931;28;20027;-55
2021/06/20 03:29:26;;;;;;;7.15;4.90;;;589.50;1587.20;;;;;;5115492;28;20480;-55
2021/06/20 03:31:53;;;;;;;6.88;4.57;;;589.50;1587.20;;;;;;5115839;28;20055;-55
2021/06/20 03:34:19;;;;;;;15.95;5.80;;;589.50;1587.20;;;;;;5115113;28;20023;-55
2021/06/20 03:36:46;;;;;;;20.80;5.75;;;589.50;1612.80;;;;;;5114947;28;20028;-55
2021/06/20 03:39:13;;;;;;;11.23;5.50;;;589.50;1612.80;;;;;;5115692;28;20417;-56
2021/06/20 03:41:39;;;;;;;13.30;5.55;;;589.50;1587.20;;;;;;5115618;28;20141;-55
2021/06/20 03:44:06;;;;;;;9.15;5.22;;;589.50;1612.80;;;;;;5115347;28;20098;-55
2021/06/20 03:46:36;;;;;;;8.75;4.90;;;589.50;1612.80;;;;;;5115296;28;20027;-55
2021/06/20 03:49:03;;;;;;;7.40;5.25;;;589.50;1612.80;;;;;;5115107;28;20023;-55
2021/06/20 03:51:33;;;;;;;7.70;5.20;;;589.50;1612.80;;;;;;5115973;28;20411;-55
2021/06/20 03:53:59;;;;;;;9.25;5.30;;;589.50;1612.80;;;;;;5115383;28;20446;-55
2021/06/20 03:56:25;;;;;;;11.23;5.40;;;589.50;1612.80;;;;;;5115080;28;20031;-55
2021/06/20 03:58:51;;;;;;;7.72;5.32;;;589.30;1638.40;;;;;;5115317;28;20110;-55
2021/06/20 04:01:18;;;;;;;6.78;5.20;;;589.20;1638.40;;;;;;5114988;28;20090;-55
2021/06/20 04:03:44;;;;;;;10.02;5.65;;;589.10;1664.00;;;;;;5114895;28;20472;-55
2021/06/20 04:06:10;;;;;;;8.73;5.65;;;589.20;1638.40;;;;;;5115020;28;20050;-55
2021/06/20 04:08:36;;;;;;;9.85;5.63;;;589.30;1638.40;;;;;;5114834;28;20023;-55
2021/06/20 04:11:02;;;;;;;11.43;4.80;;;589.30;1638.40;;;;;;5114954;28;20081;-55
2021/06/20 04:13:27;;;;;;;11.23;5.40;;;589.50;1612.80;;;;;;5114762;28;20479;-55
2021/06/20 04:15:53;;;;;;;11.18;5.82;;;589.50;1612.80;;;;;;5114636;28;20031;-55
2021/06/20 04:18:19;;;;;;;14.32;6.25;;;589.60;1612.80;;;;;;5114945;28;20030;-55
2021/06/20 04:20:45;;;;;;;11.25;5.60;;;589.60;1612.80;;;;;;5114630;28;20462;-55
2021/06/20 04:23:11;;;;;;;10.55;5.78;;;589.70;1612.80;;;;;;5114503;28;20028;-55
2021/06/20 04:25:37;;;;;;;11.75;5.97;;;614.40;1612.80;;;;;;5114590;28;20064;-55
2021/06/20 04:28:04;;;;;;;16.88;7.35;;;614.40;1612.80;;;;;;5130400;27;20468;-55
2021/06/20 04:30:30;;;;;;;15.65;6.80;;;614.40;1612.80;;;;;;5114640;28;20039;-56
2021/06/20 04:32:55;;;;;;;13.15;5.70;;;614.50;1638.40;;;;;;5114460;28;20361;-55
2021/06/20 04:35:22;;;;;;;12.10;6.60;;;614.50;1612.80;;;;;;5114746;28;20028;-55
2021/06/20 04:37:49;;;;;;;10.50;6.57;;;614.60;1612.80;;;;;;5114302;28;20028;-71
2021/06/20 04:40:23;;;;;;;11.18;6.13;;;614.60;1612.80;;;;;;5114311;28;20464;-55
2021/06/20 04:43:03;;;;;;;17.02;7.05;;;614.60;1612.80;;;;;;5114531;28;20035;-56
2021/06/20 04:45:29;;;;;;;10.35;6.47;;;614.60;1638.40;;;;;;5114505;28;20027;-55
2021/06/20 04:47:55;;;;;;;13.75;7.60;;;614.60;1638.40;;;;;;5113836;28;20400;-55
2021/06/20 04:50:21;;;;;;;15.73;7.03;;;614.60;1638.40;;;;;;5114085;28;20028;-55
2021/06/20 04:52:47;;;;;;;9.68;6.93;;;614.60;1638.40;;;;;;5114341;28;20076;-55
2021/06/20 04:55:14;;;;;;;8.98;6.50;;;614.60;1638.40;;;;;;5129997;27;20140;-56
2021/06/20 04:57:41;;;;;;;14.55;6.97;;;614.70;1638.40;;;;;;5114287;28;20138;-55
2021/06/20 05:00:08;;;;;;;12.15;7.03;;;614.70;1638.40;;;;;;5114832;28;20024;-64
2021/06/20 05:02:35;;;;;;;11.52;6.68;;;614.80;1638.40;;;;;;5113902;28;20016;-55
2021/06/20 05:05:02;;;;;;;9.63;6.05;;;614.80;1664.00;;;;;;5113762;28;20020;-56
2021/06/20 05:07:28;;;;;;;13.13;6.70;;;614.70;1689.60;;;;;;5113885;28;20426;-56
2021/06/20 05:09:54;;;;;;;16.50;6.40;;;614.70;1664.00;;;;;;5114116;28;20052;-55
2021/06/20 05:12:20;;;;;;;10.18;5.85;;;614.80;1664.00;;;;;;5113884;28;20015;-56
2021/06/20 05:14:47;;;;;;;17.30;7.35;;;614.80;1664.00;;;;;;5114103;28;20028;-55
2021/06/20 05:17:16;;;;;;;9.98;6.80;;;614.90;1689.60;;;;;;5129678;28;20016;-56
2021/06/20 05:19:42;;;;;;;18.55;6.93;;;614.90;1664.00;;;;;;5114110;28;20157;-56
2021/06/20 05:22:12;;;;;;;9.48;6.57;;;615.00;1664.00;;;;;;5113859;28;20024;-56
2021/06/20 05:24:40;;;;;;;11.23;6.50;;;615.00;1689.60;;;;;;5114064;28;20380;-55
2021/06/20 05:27:07;;;;;;;13.27;6.43;;;615.00;1664.00;;;;;;5113779;28;20012;-55
2021/06/20 05:29:33;;;;;;;8.95;6.78;;;615.10;1664.00;;;;;;5113990;28;20031;-55
2021/06/20 05:31:59;;;;;;;15.35;6.60;;;615.10;1689.60;;;;;;5113757;28;20035;-56
2021/06/20 05:34:25;;;;;;;10.82;6.80;;;615.10;1664.00;;;;;;5113689;28;20081;-58
2021/06/20 05:36:51;;;;;;;9.13;7.15;;;615.20;1664.00;;;;;;5114099;28;20019;-55
2021/06/20 05:39:17;;;;;;;12.73;9.63;;;615.20;1664.00;;;;;;5113615;28;20099;-56
2021/06/20 05:41:42;;;;;;;28.17;22.05;;;615.30;1664.00;;;;;;5113555;28;20402;-55
2021/06/20 05:44:08;;;;;;;11.00;9.38;;;615.30;1664.00;;;;;;5113862;28;20027;-55
2021/06/20 05:46:34;;;;;;;11.75;6.53;;;615.30;1715.20;;;;;;5113550;28;20353;-55
2021/06/20 05:49:00;;;;;;;8.10;6.10;;;615.30;1715.20;;;;;;5113813;28;20098;-55
2021/06/20 05:51:26;;;;;;;7.00;6.30;;;640.00;1715.20;;;;;;5113522;28;20057;-55
2021/06/20 05:53:52;;;;;;;17.02;14.75;;;640.00;1715.20;;;;;;5113474;28;20053;-55
2021/06/20 05:56:19;;;;;;;44.83;37.92;;;640.00;1689.60;;;;;;5113409;28;20020;-55
2021/06/20 05:58:45;;;;;;;12.27;8.65;;;640.00;1689.60;;;;;;5096465;28;20028;-55
2021/06/20 06:01:10;;;;;;;6.63;5.82;;;640.10;1664.00;;;;;;5117269;28;20108;-56
2021/06/20 06:03:37;;;;;;;9.68;5.68;;;640.10;1689.60;;;;;;5117547;28;20020;-55
2021/06/20 06:06:03;;;;;;;8.40;5.35;;;640.20;1689.60;;;;;;5116948;28;20126;-55
2021/06/20 06:08:29;;;;;;;8.75;5.38;;;640.20;1689.60;;;;;;5117155;28;20039;-56
2021/06/20 06:10:55;;;;;;;9.32;6.60;;;640.20;1638.40;;;;;;5117036;28;20035;-55
2021/06/20 06:13:21;;;;;;;8.75;4.95;;;640.30;1689.60;;;;;;5117418;28;20020;-55
2021/06/20 06:15:47;;;;;;;12.80;5.95;;;640.40;1638.40;;;;;;5117061;28;20087;-55
2021/06/20 06:18:12;;;;;;;8.32;5.00;;;640.50;1715.20;;;;;;5117086;28;20464;-55
2021/06/20 06:20:38;;;;;;;6.07;4.50;;;640.50;1638.40;;;;;;5117215;28;20092;-55
2021/06/20 06:23:04;;;;;;;7.90;4.88;;;640.60;1689.60;;;;;;5116955;28;20016;-56
2021/06/20 06:25:30;;;;;;;7.47;4.10;;;640.60;1664.00;;;;;;5117151;28;20475;-55
2021/06/20 06:27:56;;;;;;;8.90;5.05;;;640.70;1612.80;;;;;;5116851;28;20016;-55
2021/06/20 06:30:23;;;;;;;8.68;7.28;;;640.90;1612.80;;;;;;5116971;28;20043;-56
2021/06/20 06:32:49;;;;;;;23.90;19.98;;;665.60;1638.40;;;;;;5116752;28;20031;-55
2021/06/20 06:35:16;;;;;;;11.20;8.57;;;665.60;1612.80;;;;;;5116940;28;20477;-55
2021/06/20 06:37:42;;;;;;;11.20;5.65;;;665.80;1638.40;;;;;;5116910;28;20020;-56
2021/06/20 06:40:09;;;;;;;8.35;4.55;;;666.00;1612.80;;;;;;5116527;28;20020;-61
2021/06/20 06:42:36;;;;;;;6.30;4.60;;;666.10;1587.20;;;;;;5116513;28;20107;-56
2021/06/20 06:45:03;;;;;;;7.00;4.57;;;666.20;1587.20;;;;;;5116470;28;20034;-56
2021/06/20 06:47:29;;;;;;;7.43;4.03;;;666.30;1561.60;;;;;;5116445;28;20037;-55
2021/06/20 06:49:55;;;;;;;5.00;4.00;;;666.40;1561.60;;;;;;5116237;28;20140;-56
2021/06/20 06:52:21;;;;;;;9.75;4.70;;;666.50;1536.00;;;;;;5116317;28;20027;-56
2021/06/20 06:54:55;;;;;;;6.05;4.53;;;691.30;1536.00;;;;;;5116595;28;20047;-55
2021/06/20 06:57:23;;;;;;;6.63;3.95;;;691.40;1536.00;;;;;;5116515;28;20024;-55
2021/06/20 06:59:53;;;;;;;9.48;3.88;;;691.40;1536.00;;;;;;5116194;28;20027;-55
2021/06/20 07:02:23;;;;;;;6.97;4.10;;;691.50;1536.00;;;;;;5097915;28;20383;-55
2021/06/20 07:04:49;;;;;;;6.13;4.00;;;691.50;1536.00;;;;;;5116111;28;20537;-56
2021/06/20 07:07:16;;;;;;;10.35;4.80;;;691.70;1561.60;;;;;;5115942;28;20054;-56
2021/06/20 07:09:42;;;;;;;13.05;5.13;;;691.80;1536.00;;;;;;5115674;28;20024;-56
2021/06/20 07:12:08;;;;;;;5.57;4.47;;;691.90;1510.40;;;;;;5116252;28;20077;-55
2021/06/20 07:14:36;;;;;;;7.68;4.22;;;691.90;1484.80;;;;;;5116525;28;20050;-56
2021/06/20 07:17:03;;;;;;;7.50;5.10;;;692.00;1484.80;;;;;;5115881;28;20081;-56
2021/06/20 07:19:29;;;;;;;5.80;4.30;;;692.10;1459.20;;;;;;5097549;28;20041;-56
2021/06/20 07:21:55;;;;;;;9.65;5.43;;;716.90;1484.80;;;;;;5115775;28;20019;-56
2021/06/20 07:24:21;;;;;;;9.23;3.97;;;716.90;1510.40;;;;;;5116001;28;20523;-58
2021/06/20 07:26:47;;;;;;;7.07;3.63;;;717.00;1459.20;;;;;;5115927;28;20518;-56
2021/06/20 07:29:13;;;;;;;6.65;3.53;;;717.10;1459.20;;;;;;5115754;28;20028;-56
2021/06/20 07:31:39;;;;;;;5.05;3.20;;;717.20;1459.20;;;;;;5115844;28;20488;-56
2021/06/20 07:34:05;;;;;;;5.75;3.58;;;717.20;1459.20;;;;;;5115785;28;20028;-56
2021/06/20 07:36:31;;;;;;;8.70;4.10;;;717.20;1459.20;;;;;;5115778;28;20468;-56
2021/06/20 07:38:58;;;;;;;5.63;3.78;;;717.30;1459.20;;;;;;5115341;28;20483;-65
2021/06/20 07:41:24;;;;;;;6.72;4.65;;;717.30;1459.20;;;;;;5115407;28;20027;-56
2021/06/20 07:43:51;;;;;;;8.23;4.70;;;717.40;1459.20;;;;;;5115294;28;20028;-56
2021/06/20 07:46:17;;;;;;;6.43;4.15;;;717.50;1433.60;;;;;;5115537;28;20432;-56
2021/06/20 07:48:43;;;;;;;6.35;3.88;;;717.50;1433.60;;;;;;5115482;28;20106;-55
2021/06/20 07:51:09;;;;;;;9.35;3.40;;;717.50;1433.60;;;;;;5115404;28;20046;-55
2021/06/20 07:53:35;;;;;;;8.80;3.33;;;717.50;1408.00;;;;;;5115170;28;20011;-56
2021/06/20 07:56:01;;;;;;;6.78;3.20;;;717.60;1382.40;;;;;;5115418;28;20467;-55
2021/06/20 07:58:27;;;;;;;4.15;2.60;;;717.60;1382.40;;;;;;5096817;28;20087;-56
2021/06/20 08:00:53;;;;;;;6.00;2.95;;;717.60;1382.40;;;;;;5115028;28;20102;-56
2021/06/20 08:03:19;;;;;;;8.52;2.90;;;717.60;1356.80;;;;;;5115194;28;20092;-56
2021/06/20 08:05:45;;;;;;;2.63;2.20;;;717.60;1331.20;;;;;;5114990;28;20048;-56
2021/06/20 08:08:11;;;;;;;4.10;2.50;;;717.70;1356.80;;;;;;5114808;28;20028;-56
2021/06/20 08:10:36;;;;;;;5.18;2.28;;;717.70;1331.20;;;;;;5114742;28;20038;-57
2021/06/20 08:13:02;;;;;;;2.35;2.10;;;717.70;1331.20;;;;;;5114754;28;20472;-56
2021/06/20 08:15:28;;;;;;;6.68;2.88;;;717.60;1331.20;;;;;;5114790;28;20113;-56
2021/06/20 08:17:54;;;;;;;2.83;2.50;;;717.70;1331.20;;;;;;5114749;28;20080;-56
2021/06/20 08:20:20;;;;;;;2.70;2.40;;;742.40;1305.60;;;;;;5114703;28;20098;-55
2021/06/20 08:22:46;;;;;;;3.33;2.28;;;742.40;1331.20;;;;;;5113978;28;20072;-56
2021/06/20 08:25:13;;;;;;;3.17;2.00;;;742.50;1305.60;;;;;;5114816;28;20024;-59
2021/06/20 08:27:40;;;;;;;2.53;1.80;;;742.60;1305.60;;;;;;5114468;28;20058;-56
2021/06/20 08:30:08;;;;;;;3.35;2.08;;;742.60;1280.00;;;;;;5114355;28;20499;-56
2021/06/20 08:32:34;;;;;;;4.05;1.98;;;742.60;1280.00;;;;;;5114694;28;20380;-56
2021/06/20 08:35:02;;;;;;;3.50;2.08;;;742.60;1254.40;;;;;;5114644;28;20380;-57
2021/06/20 08:37:28;;;;;;;3.90;1.70;;;742.60;1280.00;;;;;;5114670;28;20034;-56
2021/06/20 08:39:54;;;;;;;4.13;1.70;;;742.70;1254.40;;;;;;5114072;28;20023;-57
2021/06/20 08:42:20;;;;;;;5.85;2.10;;;742.70;1254.40;;;;;;5114186;28;20027;-56
2021/06/20 08:44:46;;;;;;;4.18;1.63;;;742.80;1228.80;;;;;;5114485;28;20032;-56
2021/06/20 08:47:17;;;;;;;5.68;1.75;;;742.80;1228.80;;;;;;5114491;28;20055;-56
2021/06/20 08:49:45;;;;;;;3.28;1.73;;;742.80;1228.80;;;;;;5096809;28;20077;-56
2021/06/20 08:52:11;;;;;;;8.57;1.90;;;742.80;1203.20;;;;;;5114995;28;20023;-56
2021/06/20 08:54:37;;;;;;;3.67;1.88;;;742.80;1203.20;;;;;;5114090;28;20024;-56
2021/06/20 08:57:06;;;;;;;5.20;2.20;;;742.90;1254.40;;;;;;5114096;28;20015;-56
2021/06/20 08:59:32;;;;;;;5.97;2.20;;;742.90;1228.80;;;;;;5114018;28;20110;-56
2021/06/20 09:01:58;;;;;;;12.35;2.92;;;742.90;1254.40;;;;;;5113887;28;20111;-56
2021/06/20 09:04:34;;;;;;;7.00;1.88;;;743.00;1228.80;;;;;;5113481;28;20028;-56
2021/06/20 09:07:02;;;;;;;3.28;1.85;;;743.00;1177.60;;;;;;5110841;28;20043;-64
2021/06/20 09:09:34;;;;;;;4.43;1.80;;;743.00;1177.60;;;;;;5112830;28;20053;-56
2021/06/20 09:12:08;;;;;;;5.30;2.30;;;743.00;1152.00;;;;;;5113747;28;20032;-56
2021/06/20 09:14:46;;;;;;;4.85;2.03;;;743.00;1203.20;;;;;;5113809;28;20023;-56
2021/06/20 09:17:12;;;;;;;4.57;1.83;;;743.00;1203.20;;;;;;5113819;28;20165;-56
2021/06/20 09:19:39;;;;;;;8.38;2.22;;;743.00;1203.20;;;;;;5113176;28;20117;-56
2021/06/20 09:22:09;;;;;;;4.13;2.20;;;743.10;1203.20;;;;;;5112341;28;20020;-57
2021/06/20 09:24:37;;;;;;;3.08;2.20;;;743.10;1203.20;;;;;;5112442;28;20166;-56
2021/06/20 09:27:04;;;;;;;2.42;1.85;;;743.10;1152.00;;;;;;5112387;28;20652;-58
2021/06/20 09:29:39;;;;;;;2.50;1.80;;;743.10;1152.00;;;;;;5112264;28;20035;-56
2021/06/20 09:32:10;;;;;;;3.13;1.88;;;743.10;1152.00;;;;;;5110751;28;20031;-56
2021/06/20 09:34:46;;;;;;;6.70;2.40;;;743.10;1152.00;;;;;;5115845;28;20499;-62
2021/06/20 09:37:13;;;;;;;7.05;2.22;;;743.10;1203.20;;;;;;5116306;28;20020;-57
2021/06/20 09:39:40;;;;;;;2.25;1.73;;;743.10;1177.60;;;;;;5116109;28;20028;-56
2021/06/20 09:42:08;;;;;;;4.13;1.80;;;743.20;1100.80;;;;;;5115868;28;20024;-57
2021/06/20 09:44:48;;;;;;;4.95;1.80;;;743.20;1075.20;;;;;;5115934;28;20027;-56
2021/06/20 09:47:22;;;;;;;2.35;1.58;;;743.20;1100.80;;;;;;5115513;28;20058;-57
2021/06/20 09:49:51;;;;;;;6.80;1.50;;;743.20;1152.00;;;;;;5114441;28;20023;-56
2021/06/20 09:52:31;;;;;;;6.25;2.13;;;743.30;1126.40;;;;;;5116010;28;20020;-56
2021/06/20 09:54:59;;;;;;;9.00;2.00;;;743.20;1152.00;;;;;;5115344;28;20092;-56
2021/06/20 09:57:26;;;;;;;3.75;1.52;;;768.00;1152.00;;;;;;5115850;28;20027;-56
2021/06/20 09:59:59;;;;;;;4.63;2.28;;;768.00;1177.60;;;;;;5115891;28;20027;-57
2021/06/20 10:02:28;;;;;;;4.78;1.88;;;768.00;1152.00;;;;;;5113942;28;20031;-56
2021/06/20 10:04:54;;;;;;;1.95;1.52;;;768.00;1152.00;;;;;;5115869;28;20394;-56
2021/06/20 10:07:27;;;;;;;5.28;2.13;;;768.00;1152.00;;;;;;5115462;28;20407;-56
2021/06/20 10:09:54;;;;;;;2.78;2.03;;;768.00;1152.00;;;;;;5115656;28;20084;-56
2021/06/20 10:12:22;;;;;;;3.88;1.80;;;768.00;1075.20;;;;;;5115876;28;20024;-56
2021/06/20 10:14:48;;;;;;;3.17;2.58;;;768.00;1152.00;;;;;;5115812;28;20085;-56
2021/06/20 10:17:19;;;;;;;3.35;1.65;;;768.00;1126.40;;;;;;5115710;28;20026;-56
2021/06/20 10:19:51;;;;;;;2.65;1.83;;;768.00;1152.00;;;;;;5115745;28;20050;-56
2021/06/20 10:22:18;;;;;;;2.85;1.58;;;768.10;1126.40;;;;;;5115843;28;20491;-57
2021/06/20 10:24:53;;;;;;;2.00;1.63;;;768.10;1152.00;;;;;;5116716;28;20066;-56
2021/06/20 10:27:32;;;;;;;3.67;2.10;;;768.10;1126.40;;;;;;5117176;28;20031;-56
2021/06/20 10:30:01;;;;;;;7.72;1.85;;;768.20;1152.00;;;;;;5117005;28;20088;-56
2021/06/20 10:32:34;;;;;;;6.05;2.58;;;768.20;1100.80;;;;;;5117372;28;20030;-56
2021/06/20 10:35:02;;;;;;;4.93;1.80;;;768.20;1126.40;;;;;;5117061;28;20476;-56
2021/06/20 10:37:33;;;;;;;2.13;1.77;;;768.20;1100.80;;;;;;5116743;28;20492;-56
2021/06/20 10:40:01;;;;;;;5.28;1.67;;;768.20;1100.80;;;;;;5116710;28;20031;-56
2021/06/20 10:42:38;;;;;;;5.55;1.80;;;768.20;1152.00;;;;;;5116846;28;20090;-56
2021/06/20 10:45:09;;;;;;;4.53;1.70;;;768.20;1126.40;;;;;;5115858;28;20035;-56
2021/06/20 10:47:39;;;;;;;3.53;1.85;;;768.30;1075.20;;;;;;5116862;28;20020;-56
2021/06/20 10:50:09;;;;;;;4.47;1.55;;;768.40;1075.20;;;;;;5116362;28;20118;-56
2021/06/20 10:52:36;;;;;;;4.32;1.55;;;768.40;1075.20;;;;;;5116730;28;20435;-56
2021/06/20 10:55:11;;;;;;;2.50;1.60;;;768.40;1126.40;;;;;;5116326;28;20028;-56
2021/06/20 10:57:48;;;;;;;4.90;1.75;;;768.50;1126.40;;;;;;5116299;28;20538;-56
2021/06/20 11:00:35;;;;;;;6.97;1.65;;;768.50;1126.40;;;;;;5116567;28;20016;-56
2021/06/20 11:03:11;;;;;;;2.30;1.75;;;768.50;1100.80;;;;;;5116186;28;20015;-56
2021/06/20 11:05:45;;;;;;;10.05;2.47;;;768.60;1100.80;;;;;;5116180;28;20046;-56
2021/06/20 11:08:11;;;;;;;12.80;2.45;;;768.60;1075.20;;;;;;5116105;28;20525;-56
2021/06/20 11:10:38;;;;;;;8.25;1.75;;;768.60;1126.40;;;;;;5115703;28;20039;-56
2021/06/20 11:13:04;;;;;;;6.28;1.95;;;768.60;1100.80;;;;;;5115918;28;20099;-56
2021/06/20 11:15:30;;;;;;;5.55;2.00;;;768.60;1126.40;;;;;;5116010;28;20028;-56
2021/06/20 11:18:07;;;;;;;15.05;2.78;;;768.60;1100.80;;;;;;5116218;28;20020;-56
2021/06/20 11:20:35;;;;;;;6.53;1.73;;;768.70;1075.20;;;;;;5115901;28;20020;-55
2021/06/20 11:23:02;;;;;;;16.40;2.25;;;768.70;1075.20;;;;;;5115810;28;20504;-56
2021/06/20 11:25:29;;;;;;;3.65;1.95;;;768.70;1126.40;;;;;;5116009;28;20426;-56
2021/06/20 11:27:55;;;;;;;8.98;2.55;;;768.70;1075.20;;;;;;5097390;28;20077;-57
2021/06/20 11:30:22;;;;;;;3.97;1.55;;;768.70;1100.80;;;;;;5115614;28;20024;-55
2021/06/20 11:32:48;;;;;;;7.88;1.95;;;768.80;1075.20;;;;;;5097369;28;20024;-55
2021/06/20 11:35:18;;;;;;;4.32;1.85;;;768.80;1100.80;;;;;;5115842;28;20074;-56
2021/06/20 11:37:49;;;;;;;4.43;2.03;;;768.80;1075.20;;;;;;5097279;28;20019;-55
2021/06/20 11:40:23;;;;;;;4.63;2.15;;;793.60;1100.80;;;;;;5116047;28;20020;-56
2021/06/20 11:42:54;;;;;;;5.47;2.13;;;793.60;1100.80;;;;;;5115437;28;20099;-56
2021/06/20 11:45:23;;;;;;;3.83;1.60;;;793.60;1100.80;;;;;;5115335;28;20051;-55
2021/06/20 11:47:51;;;;;;;3.35;1.60;;;793.60;1075.20;;;;;;5115600;28;20031;-56
2021/06/20 11:50:27;;;;;;;5.57;2.17;;;793.60;1075.20;;;;;;5115105;28;20432;-60
2021/06/20 11:53:00;;;;;;;7.70;1.73;;;793.60;1075.20;;;;;;5115227;28;20053;-56
2021/06/20 11:55:28;;;;;;;5.35;2.03;;;793.70;1075.20;;;;;;5115048;28;20103;-56
2021/06/20 11:57:55;;;;;;;10.35;2.60;;;793.70;1075.20;;;;;;5114873;28;20024;-56
2021/06/20 12:00:26;;;;;;;5.60;1.80;;;793.70;1126.40;;;;;;5115297;28;20128;-55
2021/06/20 12:03:05;;;;;;;6.45;2.03;;;793.80;1024.00;;;;;;5115025;28;20467;-56
2021/06/20 12:05:32;;;;;;;2.08;1.67;;;793.80;1075.20;;;;;;5114990;28;20054;-64
2021/06/20 12:08:06;;;;;;;5.35;1.95;;;793.80;1049.60;;;;;;5114952;28;20020;-56
2021/06/20 12:10:36;;;;;;;18.00;3.03;;;793.80;1075.20;;;;;;5114085;28;20105;-55
2021/06/20 12:13:04;;;;;;;5.00;1.52;;;793.80;1075.20;;;;;;5115213;28;20055;-55
2021/06/20 12:15:33;;;;;;;12.98;2.22;;;793.80;1049.60;;;;;;5114821;28;20583;-56